香港 の空港の天気 - METARとTAF

香港国際空港 ( VHHH / HKG ) - 香港 赤リョウ角
飛行場実況気象(Metar)
観測時間02/01 16:00 HKT (02/01 08:00 UTC)
風向・風速西北西 2m/s
視程10km以上
天気現象
少しの雲 雲底高度 910m
気温24℃
湿度61%
気圧1013hPa
METARVHHH 010800Z 30003KT 9999 FEW030 24/16 Q1013 NOSIG
過去の天気等 Google飛行場航空写真 Wunderground天気予報

過去48時間のMETAR

飛行場予報(TAF)
発表時間: 2/01 13:00 HKT (2/01 05:00 UTC)
予報対象時間: 1日14時 HKT ~ 2日20時 HKT
風向・風速西 5m/s
視程10km以上
少しの雲 雲底高度 610m
1日16時 HKT ~ 1日18時 HKT に徐々に
風向・風速東 5m/s
TAF VHHH 010500Z 0106/0212 26010KT 9999 FEW020 TX23/0106Z TX22/0206Z TN18/0123Z
BECMG 0108/0110 09010KT